sensor_id;sensor_type;location;lat;lon;timestamp;P1;durP1;ratioP1;P2;durP2;ratioP2
12348;SDS011;5974;42.710;27.258;2023-04-12T00:00:05;4.07;;;3.43;;
12348;SDS011;5974;42.710;27.258;2023-04-12T00:02:35;4.87;;;3.77;;
12348;SDS011;5974;42.710;27.258;2023-04-12T00:05:03;3.23;;;2.93;;
12348;SDS011;5974;42.710;27.258;2023-04-12T00:07:30;3.57;;;3.27;;
12348;SDS011;5974;42.710;27.258;2023-04-12T00:09:57;3.60;;;3.30;;
12348;SDS011;5974;42.710;27.258;2023-04-12T00:12:26;4.20;;;3.80;;
12348;SDS011;5974;42.710;27.258;2023-04-12T00:14:52;4.67;;;3.63;;
12348;SDS011;5974;42.710;27.258;2023-04-12T00:17:19;3.23;;;2.97;;
12348;SDS011;5974;42.710;27.258;2023-04-12T00:19:47;4.07;;;3.50;;
12348;SDS011;5974;42.710;27.258;2023-04-12T00:22:14;3.43;;;3.13;;
12348;SDS011;5974;42.710;27.258;2023-04-12T00:24:41;3.40;;;3.17;;
12348;SDS011;5974;42.710;27.258;2023-04-12T00:27:08;4.00;;;3.70;;
12348;SDS011;5974;42.710;27.258;2023-04-12T00:29:36;3.67;;;3.37;;
12348;SDS011;5974;42.710;27.258;2023-04-12T00:32:03;3.70;;;3.40;;
12348;SDS011;5974;42.710;27.258;2023-04-12T00:34:30;3.77;;;3.43;;
12348;SDS011;5974;42.710;27.258;2023-04-12T00:36:58;3.73;;;3.37;;
12348;SDS011;5974;42.710;27.258;2023-04-12T00:39:26;4.00;;;3.70;;
12348;SDS011;5974;42.710;27.258;2023-04-12T00:41:53;4.53;;;4.03;;
12348;SDS011;5974;42.710;27.258;2023-04-12T00:44:21;3.40;;;3.20;;
12348;SDS011;5974;42.710;27.258;2023-04-12T00:46:49;4.03;;;3.73;;
12348;SDS011;5974;42.710;27.258;2023-04-12T00:49:16;4.60;;;4.17;;
12348;SDS011;5974;42.710;27.258;2023-04-12T00:51:43;3.80;;;3.50;;
12348;SDS011;5974;42.710;27.258;2023-04-12T00:54:11;4.03;;;3.73;;
12348;SDS011;5974;42.710;27.258;2023-04-12T00:56:42;4.33;;;3.90;;
12348;SDS011;5974;42.710;27.258;2023-04-12T00:59:10;4.30;;;4.00;;
12348;SDS011;5974;42.710;27.258;2023-04-12T01:01:37;4.93;;;4.53;;
12348;SDS011;5974;42.710;27.258;2023-04-12T01:04:06;4.43;;;4.03;;
12348;SDS011;5974;42.710;27.258;2023-04-12T01:06:36;4.47;;;4.03;;
12348;SDS011;5974;42.710;27.258;2023-04-12T01:09:17;4.23;;;3.83;;
12348;SDS011;5974;42.710;27.258;2023-04-12T01:11:56;4.43;;;4.03;;
12348;SDS011;5974;42.710;27.258;2023-04-12T01:14:33;4.13;;;3.73;;
12348;SDS011;5974;42.710;27.258;2023-04-12T01:17:09;4.17;;;3.87;;
12348;SDS011;5974;42.710;27.258;2023-04-12T01:19:47;4.10;;;3.80;;
12348;SDS011;5974;42.710;27.258;2023-04-12T01:22:35;4.30;;;3.90;;
12348;SDS011;5974;42.710;27.258;2023-04-12T01:25:16;4.40;;;4.10;;
12348;SDS011;5974;42.710;27.258;2023-04-12T01:28:04;3.57;;;3.27;;
12348;SDS011;5974;42.710;27.258;2023-04-12T01:30:34;3.10;;;2.90;;
12348;SDS011;5974;42.710;27.258;2023-04-12T01:33:04;3.37;;;3.07;;
12348;SDS011;5974;42.710;27.258;2023-04-12T01:35:32;3.40;;;3.10;;
12348;SDS011;5974;42.710;27.258;2023-04-12T01:37:59;3.20;;;3.00;;
12348;SDS011;5974;42.710;27.258;2023-04-12T01:40:27;3.60;;;3.30;;
12348;SDS011;5974;42.710;27.258;2023-04-12T01:43:03;3.23;;;2.50;;
12348;SDS011;5974;42.710;27.258;2023-04-12T01:45:32;3.47;;;2.67;;
12348;SDS011;5974;42.710;27.258;2023-04-12T01:47:59;2.90;;;2.70;;
12348;SDS011;5974;42.710;27.258;2023-04-12T01:50:29;3.07;;;2.77;;
12348;SDS011;5974;42.710;27.258;2023-04-12T01:53:06;3.73;;;2.93;;
12348;SDS011;5974;42.710;27.258;2023-04-12T01:55:36;3.60;;;2.80;;
12348;SDS011;5974;42.710;27.258;2023-04-12T01:58:08;2.80;;;2.60;;
12348;SDS011;5974;42.710;27.258;2023-04-12T02:00:36;2.90;;;2.70;;
12348;SDS011;5974;42.710;27.258;2023-04-12T02:03:07;2.87;;;2.67;;
12348;SDS011;5974;42.710;27.258;2023-04-12T02:05:34;2.40;;;2.30;;
12348;SDS011;5974;42.710;27.258;2023-04-12T02:08:01;3.00;;;2.67;;
12348;SDS011;5974;42.710;27.258;2023-04-12T02:10:29;3.47;;;2.60;;
12348;SDS011;5974;42.710;27.258;2023-04-12T02:12:57;3.23;;;3.03;;
12348;SDS011;5974;42.710;27.258;2023-04-12T02:15:26;3.20;;;3.00;;
12348;SDS011;5974;42.710;27.258;2023-04-12T02:17:54;2.70;;;2.50;;
12348;SDS011;5974;42.710;27.258;2023-04-12T02:20:23;2.70;;;2.47;;
12348;SDS011;5974;42.710;27.258;2023-04-12T02:22:51;2.50;;;2.40;;
12348;SDS011;5974;42.710;27.258;2023-04-12T02:25:18;2.37;;;2.27;;
12348;SDS011;5974;42.710;27.258;2023-04-12T02:27:45;2.33;;;2.23;;
12348;SDS011;5974;42.710;27.258;2023-04-12T02:30:13;2.50;;;2.40;;
12348;SDS011;5974;42.710;27.258;2023-04-12T02:32:41;2.60;;;2.33;;
12348;SDS011;5974;42.710;27.258;2023-04-12T02:35:11;3.00;;;2.80;;
12348;SDS011;5974;42.710;27.258;2023-04-12T02:37:42;2.90;;;2.70;;
12348;SDS011;5974;42.710;27.258;2023-04-12T02:40:11;2.77;;;2.57;;
12348;SDS011;5974;42.710;27.258;2023-04-12T02:42:39;3.00;;;2.70;;
12348;SDS011;5974;42.710;27.258;2023-04-12T02:45:06;3.03;;;2.83;;
12348;SDS011;5974;42.710;27.258;2023-04-12T02:47:34;3.13;;;2.93;;
12348;SDS011;5974;42.710;27.258;2023-04-12T02:50:03;2.67;;;2.53;;
12348;SDS011;5974;42.710;27.258;2023-04-12T02:52:31;2.57;;;2.37;;
12348;SDS011;5974;42.710;27.258;2023-04-12T02:54:58;3.10;;;2.70;;
12348;SDS011;5974;42.710;27.258;2023-04-12T02:57:25;3.00;;;2.70;;
12348;SDS011;5974;42.710;27.258;2023-04-12T02:59:53;3.23;;;3.03;;
12348;SDS011;5974;42.710;27.258;2023-04-12T03:02:20;3.00;;;2.80;;
12348;SDS011;5974;42.710;27.258;2023-04-12T03:04:48;3.40;;;3.10;;
12348;SDS011;5974;42.710;27.258;2023-04-12T03:07:19;2.70;;;2.50;;
12348;SDS011;5974;42.710;27.258;2023-04-12T03:09:46;3.00;;;2.80;;
12348;SDS011;5974;42.710;27.258;2023-04-12T03:12:15;3.03;;;2.83;;
12348;SDS011;5974;42.710;27.258;2023-04-12T03:14:42;3.40;;;3.20;;
12348;SDS011;5974;42.710;27.258;2023-04-12T03:17:09;3.37;;;3.17;;
12348;SDS011;5974;42.710;27.258;2023-04-12T03:19:36;3.57;;;3.37;;
12348;SDS011;5974;42.710;27.258;2023-04-12T03:22:03;4.50;;;4.10;;
12348;SDS011;5974;42.710;27.258;2023-04-12T03:24:32;3.60;;;3.30;;
12348;SDS011;5974;42.710;27.258;2023-04-12T03:26:59;3.37;;;3.07;;
12348;SDS011;5974;42.710;27.258;2023-04-12T03:29:27;3.90;;;3.60;;
12348;SDS011;5974;42.710;27.258;2023-04-12T03:31:54;4.47;;;4.03;;
12348;SDS011;5974;42.710;27.258;2023-04-12T03:34:23;3.77;;;3.47;;
12348;SDS011;5974;42.710;27.258;2023-04-12T03:36:52;5.37;;;4.20;;
12348;SDS011;5974;42.710;27.258;2023-04-12T03:39:20;6.07;;;4.93;;
12348;SDS011;5974;42.710;27.258;2023-04-12T03:41:48;4.40;;;4.00;;
12348;SDS011;5974;42.710;27.258;2023-04-12T03:44:17;4.60;;;4.20;;
12348;SDS011;5974;42.710;27.258;2023-04-12T03:46:44;4.60;;;4.20;;
12348;SDS011;5974;42.710;27.258;2023-04-12T03:49:11;4.63;;;4.23;;
12348;SDS011;5974;42.710;27.258;2023-04-12T03:51:38;5.33;;;4.70;;
12348;SDS011;5974;42.710;27.258;2023-04-12T03:54:07;4.57;;;4.17;;
12348;SDS011;5974;42.710;27.258;2023-04-12T03:56:34;6.23;;;4.90;;
12348;SDS011;5974;42.710;27.258;2023-04-12T03:59:04;5.40;;;4.90;;
12348;SDS011;5974;42.710;27.258;2023-04-12T04:01:32;5.07;;;4.57;;
12348;SDS011;5974;42.710;27.258;2023-04-12T04:03:59;4.50;;;4.10;;
12348;SDS011;5974;42.710;27.258;2023-04-12T04:06:26;5.37;;;4.93;;
12348;SDS011;5974;42.710;27.258;2023-04-12T04:08:54;5.80;;;5.27;;
12348;SDS011;5974;42.710;27.258;2023-04-12T04:11:21;5.10;;;4.70;;
12348;SDS011;5974;42.710;27.258;2023-04-12T04:13:48;5.60;;;5.10;;
12348;SDS011;5974;42.710;27.258;2023-04-12T04:16:16;5.50;;;5.00;;
12348;SDS011;5974;42.710;27.258;2023-04-12T04:18:43;6.63;;;5.97;;
12348;SDS011;5974;42.710;27.258;2023-04-12T04:21:10;5.90;;;4.13;;
12348;SDS011;5974;42.710;27.258;2023-04-12T04:23:38;6.13;;;5.53;;
12348;SDS011;5974;42.710;27.258;2023-04-12T04:26:09;5.60;;;5.00;;
12348;SDS011;5974;42.710;27.258;2023-04-12T04:28:36;5.77;;;5.23;;
12348;SDS011;5974;42.710;27.258;2023-04-12T04:31:04;5.47;;;4.97;;
12348;SDS011;5974;42.710;27.258;2023-04-12T04:33:32;5.30;;;4.90;;
12348;SDS011;5974;42.710;27.258;2023-04-12T04:36:00;5.20;;;4.70;;
12348;SDS011;5974;42.710;27.258;2023-04-12T04:38:28;4.70;;;4.30;;
12348;SDS011;5974;42.710;27.258;2023-04-12T04:40:56;5.53;;;4.60;;
12348;SDS011;5974;42.710;27.258;2023-04-12T04:43:24;8.43;;;4.90;;
12348;SDS011;5974;42.710;27.258;2023-04-12T04:45:54;5.07;;;4.67;;
12348;SDS011;5974;42.710;27.258;2023-04-12T04:48:21;4.70;;;4.30;;
12348;SDS011;5974;42.710;27.258;2023-04-12T04:50:49;5.83;;;5.23;;
12348;SDS011;5974;42.710;27.258;2023-04-12T04:53:17;6.03;;;5.53;;
12348;SDS011;5974;42.710;27.258;2023-04-12T04:55:45;4.43;;;4.07;;
12348;SDS011;5974;42.710;27.258;2023-04-12T04:58:13;9.30;;;8.40;;
12348;SDS011;5974;42.710;27.258;2023-04-12T05:00:40;7.70;;;7.00;;
12348;SDS011;5974;42.710;27.258;2023-04-12T05:03:08;5.17;;;4.50;;
12348;SDS011;5974;42.710;27.258;2023-04-12T05:05:35;5.83;;;5.37;;
12348;SDS011;5974;42.710;27.258;2023-04-12T05:08:05;4.90;;;4.50;;
12348;SDS011;5974;42.710;27.258;2023-04-12T05:10:32;4.60;;;4.20;;
12348;SDS011;5974;42.710;27.258;2023-04-12T05:12:59;3.53;;;3.23;;
12348;SDS011;5974;42.710;27.258;2023-04-12T05:15:25;4.37;;;3.90;;
12348;SDS011;5974;42.710;27.258;2023-04-12T05:17:52;3.40;;;3.10;;
12348;SDS011;5974;42.710;27.258;2023-04-12T05:20:19;4.10;;;3.80;;
12348;SDS011;5974;42.710;27.258;2023-04-12T05:22:46;3.77;;;3.43;;
12348;SDS011;5974;42.710;27.258;2023-04-12T05:25:14;3.73;;;3.40;;
12348;SDS011;5974;42.710;27.258;2023-04-12T05:27:42;3.53;;;3.27;;
12348;SDS011;5974;42.710;27.258;2023-04-12T05:30:10;3.97;;;3.47;;
12348;SDS011;5974;42.710;27.258;2023-04-12T05:32:37;3.50;;;3.20;;
12348;SDS011;5974;42.710;27.258;2023-04-12T05:35:04;4.27;;;3.30;;
12348;SDS011;5974;42.710;27.258;2023-04-12T05:37:31;4.40;;;4.00;;
12348;SDS011;5974;42.710;27.258;2023-04-12T05:39:58;4.10;;;3.80;;
12348;SDS011;5974;42.710;27.258;2023-04-12T05:42:26;6.00;;;4.27;;
12348;SDS011;5974;42.710;27.258;2023-04-12T05:44:53;4.67;;;3.60;;
12348;SDS011;5974;42.710;27.258;2023-04-12T05:47:21;3.90;;;3.53;;
12348;SDS011;5974;42.710;27.258;2023-04-12T05:49:47;4.73;;;3.40;;
12348;SDS011;5974;42.710;27.258;2023-04-12T05:52:14;3.33;;;3.03;;
12348;SDS011;5974;42.710;27.258;2023-04-12T05:54:41;2.57;;;2.40;;
12348;SDS011;5974;42.710;27.258;2023-04-12T05:57:08;4.93;;;2.63;;
12348;SDS011;5974;42.710;27.258;2023-04-12T05:59:38;2.90;;;2.70;;
12348;SDS011;5974;42.710;27.258;2023-04-12T06:02:05;2.40;;;2.20;;
12348;SDS011;5974;42.710;27.258;2023-04-12T06:04:33;5.00;;;2.80;;
12348;SDS011;5974;42.710;27.258;2023-04-12T06:07:00;4.77;;;2.60;;
12348;SDS011;5974;42.710;27.258;2023-04-12T06:09:27;2.97;;;2.67;;
12348;SDS011;5974;42.710;27.258;2023-04-12T06:11:53;2.80;;;2.60;;
12348;SDS011;5974;42.710;27.258;2023-04-12T06:14:21;4.00;;;3.60;;
12348;SDS011;5974;42.710;27.258;2023-04-12T06:16:49;2.57;;;2.40;;
12348;SDS011;5974;42.710;27.258;2023-04-12T06:19:16;3.80;;;3.50;;
12348;SDS011;5974;42.710;27.258;2023-04-12T06:21:43;4.53;;;4.10;;
12348;SDS011;5974;42.710;27.258;2023-04-12T06:24:10;3.47;;;3.17;;
12348;SDS011;5974;42.710;27.258;2023-04-12T06:26:37;3.90;;;3.60;;
12348;SDS011;5974;42.710;27.258;2023-04-12T06:29:07;3.47;;;2.70;;
12348;SDS011;5974;42.710;27.258;2023-04-12T06:31:34;2.87;;;2.67;;
12348;SDS011;5974;42.710;27.258;2023-04-12T06:34:02;2.60;;;2.37;;
12348;SDS011;5974;42.710;27.258;2023-04-12T06:36:29;2.77;;;2.57;;
12348;SDS011;5974;42.710;27.258;2023-04-12T06:38:56;2.97;;;2.77;;
12348;SDS011;5974;42.710;27.258;2023-04-12T06:41:23;5.60;;;3.40;;
12348;SDS011;5974;42.710;27.258;2023-04-12T06:43:50;3.13;;;2.87;;
12348;SDS011;5974;42.710;27.258;2023-04-12T06:46:24;3.50;;;3.20;;
12348;SDS011;5974;42.710;27.258;2023-04-12T06:48:51;5.87;;;3.70;;
12348;SDS011;5974;42.710;27.258;2023-04-12T06:51:19;3.63;;;3.23;;
12348;SDS011;5974;42.710;27.258;2023-04-12T06:53:46;3.27;;;2.90;;
12348;SDS011;5974;42.710;27.258;2023-04-12T06:56:13;5.73;;;4.40;;
12348;SDS011;5974;42.710;27.258;2023-04-12T06:58:40;4.00;;;3.70;;
12348;SDS011;5974;42.710;27.258;2023-04-12T07:01:07;2.80;;;2.60;;
12348;SDS011;5974;42.710;27.258;2023-04-12T07:03:35;3.20;;;2.90;;
12348;SDS011;5974;42.710;27.258;2023-04-12T07:06:03;4.57;;;4.27;;
12348;SDS011;5974;42.710;27.258;2023-04-12T07:08:33;7.70;;;7.10;;
12348;SDS011;5974;42.710;27.258;2023-04-12T07:11:01;4.80;;;4.40;;
12348;SDS011;5974;42.710;27.258;2023-04-12T07:13:28;4.30;;;3.47;;
12348;SDS011;5974;42.710;27.258;2023-04-12T07:15:55;3.50;;;3.20;;
12348;SDS011;5974;42.710;27.258;2023-04-12T07:18:24;4.70;;;4.40;;
12348;SDS011;5974;42.710;27.258;2023-04-12T07:20:53;4.17;;;3.77;;
12348;SDS011;5974;42.710;27.258;2023-04-12T07:23:20;4.37;;;3.90;;
12348;SDS011;5974;42.710;27.258;2023-04-12T07:25:49;3.40;;;3.10;;
12348;SDS011;5974;42.710;27.258;2023-04-12T07:28:15;3.20;;;2.90;;
12348;SDS011;5974;42.710;27.258;2023-04-12T07:30:42;3.50;;;3.20;;
12348;SDS011;5974;42.710;27.258;2023-04-12T07:33:09;3.90;;;3.60;;
12348;SDS011;5974;42.710;27.258;2023-04-12T07:35:36;4.77;;;4.27;;
12348;SDS011;5974;42.710;27.258;2023-04-12T07:38:03;3.93;;;3.70;;
12348;SDS011;5974;42.710;27.258;2023-04-12T07:40:30;3.33;;;3.00;;
12348;SDS011;5974;42.710;27.258;2023-04-12T07:42:59;4.90;;;4.40;;
12348;SDS011;5974;42.710;27.258;2023-04-12T07:45:25;4.47;;;4.00;;
12348;SDS011;5974;42.710;27.258;2023-04-12T07:47:53;3.80;;;3.50;;
12348;SDS011;5974;42.710;27.258;2023-04-12T07:50:20;3.83;;;3.53;;
12348;SDS011;5974;42.710;27.258;2023-04-12T07:52:47;4.03;;;3.73;;
12348;SDS011;5974;42.710;27.258;2023-04-12T07:55:13;5.33;;;4.30;;
12348;SDS011;5974;42.710;27.258;2023-04-12T07:57:40;5.27;;;4.30;;
12348;SDS011;5974;42.710;27.258;2023-04-12T08:00:10;3.70;;;3.40;;
12348;SDS011;5974;42.710;27.258;2023-04-12T08:02:37;4.30;;;3.90;;
12348;SDS011;5974;42.710;27.258;2023-04-12T08:05:04;4.10;;;3.67;;
12348;SDS011;5974;42.710;27.258;2023-04-12T08:07:32;3.60;;;3.23;;
12348;SDS011;5974;42.710;27.258;2023-04-12T08:09:59;4.73;;;4.20;;
12348;SDS011;5974;42.710;27.258;2023-04-12T08:12:26;3.10;;;2.90;;
12348;SDS011;5974;42.710;27.258;2023-04-12T08:14:53;4.13;;;3.83;;
12348;SDS011;5974;42.710;27.258;2023-04-12T08:17:21;2.70;;;2.50;;
12348;SDS011;5974;42.710;27.258;2023-04-12T08:19:48;5.40;;;4.90;;
12348;SDS011;5974;42.710;27.258;2023-04-12T08:22:15;4.23;;;3.83;;
12348;SDS011;5974;42.710;27.258;2023-04-12T08:24:42;3.70;;;3.40;;
12348;SDS011;5974;42.710;27.258;2023-04-12T08:27:09;3.30;;;3.00;;
12348;SDS011;5974;42.710;27.258;2023-04-12T08:29:38;4.97;;;3.10;;
12348;SDS011;5974;42.710;27.258;2023-04-12T08:32:05;2.70;;;2.50;;
12348;SDS011;5974;42.710;27.258;2023-04-12T08:34:36;2.63;;;2.43;;
12348;SDS011;5974;42.710;27.258;2023-04-12T08:37:03;3.83;;;3.53;;
12348;SDS011;5974;42.710;27.258;2023-04-12T08:39:30;3.63;;;3.33;;
12348;SDS011;5974;42.710;27.258;2023-04-12T08:41:57;2.53;;;2.40;;
12348;SDS011;5974;42.710;27.258;2023-04-12T08:44:32;3.97;;;3.67;;
12348;SDS011;5974;42.710;27.258;2023-04-12T08:47:01;2.67;;;2.47;;
12348;SDS011;5974;42.710;27.258;2023-04-12T08:49:29;2.67;;;2.50;;
12348;SDS011;5974;42.710;27.258;2023-04-12T08:51:58;2.63;;;2.43;;
12348;SDS011;5974;42.710;27.258;2023-04-12T08:54:26;2.63;;;2.43;;
12348;SDS011;5974;42.710;27.258;2023-04-12T08:56:54;2.50;;;2.40;;
12348;SDS011;5974;42.710;27.258;2023-04-12T08:59:23;2.93;;;2.73;;
12348;SDS011;5974;42.710;27.258;2023-04-12T09:01:52;4.17;;;2.93;;
12348;SDS011;5974;42.710;27.258;2023-04-12T09:04:20;3.50;;;3.20;;
12348;SDS011;5974;42.710;27.258;2023-04-12T09:06:47;4.10;;;3.80;;
12348;SDS011;5974;42.710;27.258;2023-04-12T09:09:15;2.87;;;2.67;;
12348;SDS011;5974;42.710;27.258;2023-04-12T09:11:43;3.37;;;3.10;;
12348;SDS011;5974;42.710;27.258;2023-04-12T09:14:19;6.23;;;4.07;;
12348;SDS011;5974;42.710;27.258;2023-04-12T09:16:47;4.00;;;3.70;;
12348;SDS011;5974;42.710;27.258;2023-04-12T09:19:14;3.80;;;3.50;;
12348;SDS011;5974;42.710;27.258;2023-04-12T09:21:51;3.13;;;2.80;;
12348;SDS011;5974;42.710;27.258;2023-04-12T09:24:21;3.30;;;3.10;;
12348;SDS011;5974;42.710;27.258;2023-04-12T09:26:49;3.93;;;3.63;;
12348;SDS011;5974;42.710;27.258;2023-04-12T09:29:27;3.47;;;3.17;;
12348;SDS011;5974;42.710;27.258;2023-04-12T09:31:55;4.23;;;3.87;;
12348;SDS011;5974;42.710;27.258;2023-04-12T09:34:25;4.43;;;4.03;;
12348;SDS011;5974;42.710;27.258;2023-04-12T09:36:53;6.93;;;4.23;;
12348;SDS011;5974;42.710;27.258;2023-04-12T09:39:19;3.67;;;3.37;;
12348;SDS011;5974;42.710;27.258;2023-04-12T09:42:04;3.80;;;3.50;;
12348;SDS011;5974;42.710;27.258;2023-04-12T09:44:32;3.27;;;3.03;;
12348;SDS011;5974;42.710;27.258;2023-04-12T09:46:59;3.30;;;3.10;;
12348;SDS011;5974;42.710;27.258;2023-04-12T09:49:35;3.47;;;3.27;;
12348;SDS011;5974;42.710;27.258;2023-04-12T09:52:03;3.07;;;2.87;;
12348;SDS011;5974;42.710;27.258;2023-04-12T09:54:32;3.30;;;3.10;;
12348;SDS011;5974;42.710;27.258;2023-04-12T09:57:05;3.50;;;2.83;;
12348;SDS011;5974;42.710;27.258;2023-04-12T09:59:34;3.50;;;3.30;;
12348;SDS011;5974;42.710;27.258;2023-04-12T10:02:03;2.77;;;2.67;;
12348;SDS011;5974;42.710;27.258;2023-04-12T10:04:33;3.23;;;3.03;;
12348;SDS011;5974;42.710;27.258;2023-04-12T10:07:02;2.20;;;2.10;;
12348;SDS011;5974;42.710;27.258;2023-04-12T10:09:32;3.37;;;2.97;;
12348;SDS011;5974;42.710;27.258;2023-04-12T10:12:00;2.60;;;2.40;;
12348;SDS011;5974;42.710;27.258;2023-04-12T10:14:29;2.33;;;2.23;;
12348;SDS011;5974;42.710;27.258;2023-04-12T10:16:57;2.70;;;2.50;;
12348;SDS011;5974;42.710;27.258;2023-04-12T10:19:25;2.90;;;2.60;;
12348;SDS011;5974;42.710;27.258;2023-04-12T10:21:53;2.20;;;2.00;;
12348;SDS011;5974;42.710;27.258;2023-04-12T10:24:20;4.00;;;2.60;;
12348;SDS011;5974;42.710;27.258;2023-04-12T10:26:49;1.80;;;1.70;;
12348;SDS011;5974;42.710;27.258;2023-04-12T10:29:21;3.07;;;2.57;;
12348;SDS011;5974;42.710;27.258;2023-04-12T10:31:48;1.60;;;1.50;;
12348;SDS011;5974;42.710;27.258;2023-04-12T10:34:16;1.40;;;1.40;;
12348;SDS011;5974;42.710;27.258;2023-04-12T10:36:52;1.50;;;1.50;;
12348;SDS011;5974;42.710;27.258;2023-04-12T10:39:36;1.47;;;1.37;;
12348;SDS011;5974;42.710;27.258;2023-04-12T10:42:15;1.40;;;1.40;;
12348;SDS011;5974;42.710;27.258;2023-04-12T10:44:44;1.37;;;1.27;;
12348;SDS011;5974;42.710;27.258;2023-04-12T10:47:11;1.43;;;1.30;;
12348;SDS011;5974;42.710;27.258;2023-04-12T10:49:38;1.40;;;1.40;;
12348;SDS011;5974;42.710;27.258;2023-04-12T10:52:12;1.30;;;1.30;;
12348;SDS011;5974;42.710;27.258;2023-04-12T10:54:42;2.00;;;1.90;;
12348;SDS011;5974;42.710;27.258;2023-04-12T11:00:11;1.40;;;1.40;;
12348;SDS011;5974;42.710;27.258;2023-04-12T11:05:55;1.90;;;1.80;;
12348;SDS011;5974;42.710;27.258;2023-04-12T11:08:23;2.20;;;2.00;;
12348;SDS011;5974;42.710;27.258;2023-04-12T11:10:51;2.53;;;2.33;;
12348;SDS011;5974;42.710;27.258;2023-04-12T11:13:26;1.70;;;1.60;;
12348;SDS011;5974;42.710;27.258;2023-04-12T11:15:53;1.80;;;1.70;;
12348;SDS011;5974;42.710;27.258;2023-04-12T11:18:22;1.60;;;1.50;;
12348;SDS011;5974;42.710;27.258;2023-04-12T11:20:49;2.10;;;1.90;;
12348;SDS011;5974;42.710;27.258;2023-04-12T11:23:17;1.73;;;1.53;;
12348;SDS011;5974;42.710;27.258;2023-04-12T11:25:48;2.83;;;1.90;;
12348;SDS011;5974;42.710;27.258;2023-04-12T11:28:17;1.53;;;1.43;;
12348;SDS011;5974;42.710;27.258;2023-04-12T11:30:50;2.50;;;1.80;;
12348;SDS011;5974;42.710;27.258;2023-04-12T11:36:07;1.60;;;1.50;;
12348;SDS011;5974;42.710;27.258;2023-04-12T11:38:36;1.70;;;1.60;;
12348;SDS011;5974;42.710;27.258;2023-04-12T11:41:04;1.53;;;1.47;;
12348;SDS011;5974;42.710;27.258;2023-04-12T11:43:32;1.80;;;1.70;;
12348;SDS011;5974;42.710;27.258;2023-04-12T11:46:01;1.70;;;1.60;;
12348;SDS011;5974;42.710;27.258;2023-04-12T11:48:28;2.10;;;2.00;;
12348;SDS011;5974;42.710;27.258;2023-04-12T11:50:55;1.93;;;1.83;;
12348;SDS011;5974;42.710;27.258;2023-04-12T11:53:25;2.57;;;2.37;;
12348;SDS011;5974;42.710;27.258;2023-04-12T11:55:55;2.10;;;1.90;;
12348;SDS011;5974;42.710;27.258;2023-04-12T11:58:24;2.30;;;2.13;;
12348;SDS011;5974;42.710;27.258;2023-04-12T12:00:52;2.03;;;1.93;;
12348;SDS011;5974;42.710;27.258;2023-04-12T12:03:23;1.83;;;1.73;;
12348;SDS011;5974;42.710;27.258;2023-04-12T12:05:50;2.80;;;2.60;;
12348;SDS011;5974;42.710;27.258;2023-04-12T12:08:17;2.33;;;2.17;;
12348;SDS011;5974;42.710;27.258;2023-04-12T12:10:45;2.10;;;2.00;;
12348;SDS011;5974;42.710;27.258;2023-04-12T12:13:12;3.90;;;3.60;;
12348;SDS011;5974;42.710;27.258;2023-04-12T12:15:42;3.10;;;2.90;;
12348;SDS011;5974;42.710;27.258;2023-04-12T12:18:10;3.70;;;3.10;;
12348;SDS011;5974;42.710;27.258;2023-04-12T12:20:41;3.37;;;3.07;;
12348;SDS011;5974;42.710;27.258;2023-04-12T12:23:26;3.80;;;3.50;;
12348;SDS011;5974;42.710;27.258;2023-04-12T12:25:55;2.90;;;2.70;;
12348;SDS011;5974;42.710;27.258;2023-04-12T12:28:22;3.07;;;2.87;;
12348;SDS011;5974;42.710;27.258;2023-04-12T12:30:51;2.60;;;2.40;;
12348;SDS011;5974;42.710;27.258;2023-04-12T12:33:18;2.73;;;2.53;;
12348;SDS011;5974;42.710;27.258;2023-04-12T12:35:47;2.70;;;2.50;;
12348;SDS011;5974;42.710;27.258;2023-04-12T12:38:21;3.23;;;3.03;;
12348;SDS011;5974;42.710;27.258;2023-04-12T12:40:48;3.10;;;2.90;;
12348;SDS011;5974;42.710;27.258;2023-04-12T12:43:17;3.00;;;2.80;;
12348;SDS011;5974;42.710;27.258;2023-04-12T12:45:45;4.63;;;3.13;;
12348;SDS011;5974;42.710;27.258;2023-04-12T12:48:12;4.37;;;3.93;;
12348;SDS011;5974;42.710;27.258;2023-04-12T12:50:39;3.90;;;3.50;;
12348;SDS011;5974;42.710;27.258;2023-04-12T12:53:07;3.70;;;3.40;;
12348;SDS011;5974;42.710;27.258;2023-04-12T12:55:34;3.13;;;2.90;;
12348;SDS011;5974;42.710;27.258;2023-04-12T12:58:01;4.17;;;3.00;;
12348;SDS011;5974;42.710;27.258;2023-04-12T13:00:28;2.90;;;2.70;;
12348;SDS011;5974;42.710;27.258;2023-04-12T13:02:55;3.23;;;3.00;;
12348;SDS011;5974;42.710;27.258;2023-04-12T13:05:22;3.40;;;3.20;;
12348;SDS011;5974;42.710;27.258;2023-04-12T13:07:49;8.23;;;4.73;;
12348;SDS011;5974;42.710;27.258;2023-04-12T13:10:17;3.67;;;2.83;;
12348;SDS011;5974;42.710;27.258;2023-04-12T13:12:44;3.00;;;2.80;;
12348;SDS011;5974;42.710;27.258;2023-04-12T13:15:11;3.00;;;2.80;;
12348;SDS011;5974;42.710;27.258;2023-04-12T13:17:39;3.47;;;3.17;;
12348;SDS011;5974;42.710;27.258;2023-04-12T13:20:06;4.57;;;3.53;;
12348;SDS011;5974;42.710;27.258;2023-04-12T13:22:33;3.30;;;3.10;;
12348;SDS011;5974;42.710;27.258;2023-04-12T13:25:00;3.60;;;3.33;;
12348;SDS011;5974;42.710;27.258;2023-04-12T13:27:29;4.33;;;3.93;;
12348;SDS011;5974;42.710;27.258;2023-04-12T13:29:55;5.50;;;3.00;;
12348;SDS011;5974;42.710;27.258;2023-04-12T13:32:22;4.13;;;3.23;;
12348;SDS011;5974;42.710;27.258;2023-04-12T13:34:50;3.00;;;2.80;;
12348;SDS011;5974;42.710;27.258;2023-04-12T13:37:17;3.00;;;2.80;;
12348;SDS011;5974;42.710;27.258;2023-04-12T13:39:43;3.70;;;3.40;;
12348;SDS011;5974;42.710;27.258;2023-04-12T13:42:10;3.20;;;3.00;;
12348;SDS011;5974;42.710;27.258;2023-04-12T13:44:38;4.30;;;3.90;;
12348;SDS011;5974;42.710;27.258;2023-04-12T13:47:05;3.67;;;3.37;;
12348;SDS011;5974;42.710;27.258;2023-04-12T13:49:32;2.40;;;2.30;;
12348;SDS011;5974;42.710;27.258;2023-04-12T13:52:00;2.83;;;2.73;;
12348;SDS011;5974;42.710;27.258;2023-04-12T13:54:27;3.57;;;2.70;;
12348;SDS011;5974;42.710;27.258;2023-04-12T13:56:54;2.70;;;2.40;;
12348;SDS011;5974;42.710;27.258;2023-04-12T13:59:22;3.07;;;2.87;;
12348;SDS011;5974;42.710;27.258;2023-04-12T14:01:51;2.73;;;2.53;;
12348;SDS011;5974;42.710;27.258;2023-04-12T14:04:17;2.83;;;2.63;;
12348;SDS011;5974;42.710;27.258;2023-04-12T14:06:44;3.27;;;2.93;;
12348;SDS011;5974;42.710;27.258;2023-04-12T14:09:21;2.73;;;2.53;;
12348;SDS011;5974;42.710;27.258;2023-04-12T14:11:49;2.30;;;2.07;;
12348;SDS011;5974;42.710;27.258;2023-04-12T14:14:16;2.63;;;2.43;;
12348;SDS011;5974;42.710;27.258;2023-04-12T14:16:43;2.47;;;2.37;;
12348;SDS011;5974;42.710;27.258;2023-04-12T14:19:13;2.77;;;2.50;;
12348;SDS011;5974;42.710;27.258;2023-04-12T14:21:40;2.93;;;2.63;;
12348;SDS011;5974;42.710;27.258;2023-04-12T14:24:08;2.40;;;2.30;;
12348;SDS011;5974;42.710;27.258;2023-04-12T14:26:34;2.60;;;2.33;;
12348;SDS011;5974;42.710;27.258;2023-04-12T14:29:03;3.30;;;3.10;;
12348;SDS011;5974;42.710;27.258;2023-04-12T14:31:30;3.30;;;3.10;;
12348;SDS011;5974;42.710;27.258;2023-04-12T14:33:58;3.00;;;2.80;;
12348;SDS011;5974;42.710;27.258;2023-04-12T14:36:26;3.50;;;2.90;;
12348;SDS011;5974;42.710;27.258;2023-04-12T14:38:53;4.90;;;2.70;;
12348;SDS011;5974;42.710;27.258;2023-04-12T14:41:20;2.90;;;2.67;;
12348;SDS011;5974;42.710;27.258;2023-04-12T14:43:47;2.70;;;2.60;;
12348;SDS011;5974;42.710;27.258;2023-04-12T14:46:15;2.50;;;2.30;;
12348;SDS011;5974;42.710;27.258;2023-04-12T14:48:42;3.07;;;2.87;;
12348;SDS011;5974;42.710;27.258;2023-04-12T14:51:09;2.90;;;2.70;;
12348;SDS011;5974;42.710;27.258;2023-04-12T14:53:38;3.60;;;3.00;;
12348;SDS011;5974;42.710;27.258;2023-04-12T14:56:14;3.30;;;2.80;;
12348;SDS011;5974;42.710;27.258;2023-04-12T14:58:42;3.70;;;3.40;;
12348;SDS011;5974;42.710;27.258;2023-04-12T15:01:09;3.13;;;2.93;;
12348;SDS011;5974;42.710;27.258;2023-04-12T15:03:37;2.63;;;2.50;;